createdAt,value
2024-05-09T00:01:18.366Z,10.00
2024-05-09T00:04:04.262Z,9.90
2024-05-09T00:06:52.526Z,9.90
2024-05-09T00:09:38.118Z,9.70
2024-05-09T00:12:23.723Z,9.60
2024-05-09T00:15:09.506Z,9.60
2024-05-09T00:18:00.064Z,9.50
2024-05-09T00:20:48.018Z,9.40
2024-05-09T00:23:33.418Z,9.40
2024-05-09T00:26:19.100Z,9.30
2024-05-09T00:29:04.647Z,9.20
2024-05-09T00:31:50.290Z,9.10
2024-05-09T00:34:38.406Z,9.10
2024-05-09T00:37:28.544Z,9.00
2024-05-09T00:40:26.456Z,9.00
2024-05-09T00:43:16.967Z,8.90
2024-05-09T00:46:06.227Z,8.90
2024-05-09T00:48:52.276Z,8.80
2024-05-09T00:51:40.138Z,8.80
2024-05-09T00:54:26.930Z,8.70
2024-05-09T00:57:15.097Z,8.80
2024-05-09T01:00:01.204Z,8.80
2024-05-09T01:02:47.825Z,8.90
2024-05-09T01:05:34.913Z,8.90
2024-05-09T01:08:21.171Z,8.90
2024-05-09T01:11:07.835Z,8.90
2024-05-09T01:13:53.343Z,9.00
2024-05-09T01:16:39.587Z,9.10
2024-05-09T01:19:32.783Z,9.10
2024-05-09T01:22:22.251Z,9.10
2024-05-09T01:25:07.855Z,9.10
2024-05-09T01:27:53.715Z,9.10
2024-05-09T01:30:39.799Z,9.10
2024-05-09T01:33:25.666Z,9.10
2024-05-09T01:36:11.590Z,9.10
2024-05-09T01:38:57.567Z,9.00
2024-05-09T01:41:43.245Z,9.00
2024-05-09T01:44:28.975Z,8.90
2024-05-09T01:47:14.491Z,8.80
2024-05-09T01:50:03.581Z,8.60
2024-05-09T01:52:49.688Z,8.60
2024-05-09T01:55:35.044Z,8.50
2024-05-09T01:58:24.408Z,8.40
2024-05-09T02:01:10.194Z,8.30
2024-05-09T02:03:55.939Z,8.30
2024-05-09T02:06:44.071Z,8.20
2024-05-09T02:09:29.489Z,8.10
2024-05-09T02:12:15.427Z,8.00
2024-05-09T02:15:00.949Z,8.00
2024-05-09T02:17:47.058Z,7.90
2024-05-09T02:20:36.445Z,7.90
2024-05-09T02:23:22.722Z,7.90
2024-05-09T02:26:10.449Z,7.90
2024-05-09T02:28:59.725Z,7.80
2024-05-09T02:31:45.405Z,7.70
2024-05-09T02:34:31.239Z,7.70
2024-05-09T02:37:16.820Z,7.60
2024-05-09T02:40:05.807Z,7.60
2024-05-09T02:42:58.930Z,7.50
2024-05-09T02:45:44.450Z,7.50
2024-05-09T02:48:30.208Z,7.50
2024-05-09T02:51:15.904Z,7.40
2024-05-09T02:54:01.379Z,7.40
2024-05-09T02:56:47.067Z,7.40
2024-05-09T02:59:35.652Z,7.30
2024-05-09T03:02:21.411Z,7.30
2024-05-09T03:05:07.765Z,7.30
2024-05-09T03:07:53.303Z,7.30
2024-05-09T03:10:41.015Z,7.30
2024-05-09T03:13:26.665Z,7.20
2024-05-09T03:16:12.157Z,7.20
2024-05-09T03:18:58.522Z,7.20
2024-05-09T03:21:43.923Z,7.10
2024-05-09T03:24:29.769Z,7.00
2024-05-09T03:27:15.659Z,7.00
2024-05-09T03:30:01.422Z,7.10
2024-05-09T03:32:47.092Z,7.00
2024-05-09T03:35:33.622Z,6.90
2024-05-09T03:38:19.227Z,6.90
2024-05-09T03:41:07.273Z,6.90
2024-05-09T03:43:53.069Z,6.90
2024-05-09T03:46:39.498Z,6.90
2024-05-09T03:49:27.707Z,7.00
2024-05-09T03:52:13.285Z,6.90
2024-05-09T03:55:01.074Z,7.00
2024-05-09T03:57:48.963Z,7.00
2024-05-09T04:00:38.728Z,7.00
2024-05-09T04:03:26.076Z,7.00
2024-05-09T04:06:11.899Z,7.00
2024-05-09T04:08:59.964Z,7.00
2024-05-09T04:11:46.041Z,7.00
2024-05-09T04:14:32.020Z,7.00
2024-05-09T04:17:17.860Z,7.10
2024-05-09T04:20:08.372Z,7.10
2024-05-09T04:22:54.276Z,7.10
2024-05-09T04:25:45.369Z,7.20
2024-05-09T04:28:31.324Z,7.10
2024-05-09T04:31:17.046Z,7.20
2024-05-09T04:34:02.711Z,7.20
2024-05-09T04:36:48.212Z,7.30
2024-05-09T04:39:33.732Z,7.40
2024-05-09T04:42:19.235Z,7.40
2024-05-09T04:45:04.994Z,7.40
2024-05-09T04:47:50.737Z,7.50
2024-05-09T04:50:39.010Z,7.60
2024-05-09T04:53:25.200Z,7.60
2024-05-09T04:56:12.746Z,7.60
2024-05-09T04:58:58.330Z,7.70
2024-05-09T05:01:48.498Z,7.70
2024-05-09T05:04:34.394Z,7.80
2024-05-09T05:07:22.776Z,7.80
2024-05-09T05:10:14.846Z,7.80
2024-05-09T05:13:20.571Z,7.90
2024-05-09T05:16:07.594Z,7.90
2024-05-09T05:18:55.944Z,8.00
2024-05-09T05:21:43.644Z,8.00
2024-05-09T05:24:29.562Z,8.10
2024-05-09T05:27:17.310Z,8.10
2024-05-09T05:30:04.613Z,8.10
2024-05-09T05:32:51.292Z,8.20
2024-05-09T05:35:37.735Z,8.20
2024-05-09T05:38:28.198Z,8.30
2024-05-09T05:41:14.274Z,8.30
2024-05-09T05:43:59.993Z,8.40
2024-05-09T05:46:45.664Z,8.40
2024-05-09T05:49:31.299Z,8.40
2024-05-09T05:52:16.920Z,8.40
2024-05-09T05:55:02.382Z,8.50
2024-05-09T05:57:47.931Z,8.60
2024-05-09T06:00:38.448Z,8.70
2024-05-09T06:03:26.264Z,8.70
2024-05-09T06:06:13.736Z,8.80
2024-05-09T06:09:01.756Z,8.90
2024-05-09T06:11:49.522Z,8.90
2024-05-09T06:14:35.325Z,9.00
2024-05-09T06:17:25.866Z,9.10
2024-05-09T06:20:20.232Z,9.20
2024-05-09T06:23:10.228Z,9.30
2024-05-09T06:25:56.232Z,9.40
2024-05-09T06:28:41.968Z,9.50
2024-05-09T06:31:27.665Z,9.50
2024-05-09T06:34:13.490Z,9.50
2024-05-09T06:36:59.563Z,9.70
2024-05-09T06:39:46.260Z,9.70
2024-05-09T06:42:32.141Z,9.90
2024-05-09T06:45:17.716Z,10.00
2024-05-09T06:48:05.919Z,10.00
2024-05-09T06:50:54.190Z,10.20
2024-05-09T06:53:41.317Z,10.20
2024-05-09T06:56:26.754Z,10.30
2024-05-09T06:59:12.609Z,10.50
2024-05-09T07:01:58.299Z,10.60
2024-05-09T07:04:46.328Z,10.80
2024-05-09T07:07:32.148Z,10.90
2024-05-09T07:10:22.196Z,11.00
2024-05-09T07:13:15.326Z,11.00
2024-05-09T07:16:01.136Z,11.20
2024-05-09T07:18:49.821Z,11.30
2024-05-09T07:21:35.436Z,11.40
2024-05-09T07:24:21.139Z,11.30
2024-05-09T07:27:06.787Z,11.50
2024-05-09T07:29:52.248Z,11.60
2024-05-09T07:32:38.146Z,11.80
2024-05-09T07:35:24.108Z,11.90
2024-05-09T07:38:09.940Z,11.90
2024-05-09T07:40:55.748Z,12.10
2024-05-09T07:43:41.326Z,12.20
2024-05-09T07:50:55.880Z,12.30
2024-05-09T07:53:30.358Z,12.40
2024-05-09T07:55:27.299Z,12.30
2024-05-09T07:58:13.088Z,12.30
2024-05-09T08:00:58.943Z,12.30
2024-05-09T08:03:45.230Z,12.40
2024-05-09T08:06:33.715Z,12.60
2024-05-09T08:09:21.210Z,12.70
2024-05-09T08:12:09.461Z,12.60
2024-05-09T08:14:56.365Z,12.70
2024-05-09T08:17:42.152Z,13.10
2024-05-09T08:20:31.299Z,13.00
2024-05-09T08:23:23.890Z,13.00
2024-05-09T08:26:09.675Z,12.90
2024-05-09T08:28:57.464Z,13.00
2024-05-09T08:31:45.471Z,13.20
2024-05-09T08:34:31.294Z,13.10
2024-05-09T08:37:22.344Z,13.30
2024-05-09T08:40:23.586Z,13.50
2024-05-09T08:43:16.356Z,13.50
2024-05-09T08:46:04.346Z,13.50
2024-05-09T08:48:52.710Z,13.50
2024-05-09T08:51:38.436Z,13.60
2024-05-09T08:54:24.004Z,13.90
2024-05-09T08:57:09.841Z,13.80
2024-05-09T08:59:58.658Z,13.90
2024-05-09T09:02:45.120Z,14.00
2024-05-09T09:05:31.992Z,14.00
2024-05-09T09:08:18.651Z,13.90
2024-05-09T09:11:04.890Z,13.80
2024-05-09T09:13:50.580Z,13.90
2024-05-09T09:16:36.874Z,13.90
2024-05-09T09:19:23.413Z,14.10
2024-05-09T09:22:10.316Z,14.20
2024-05-09T09:24:55.890Z,14.30
2024-05-09T09:27:41.786Z,14.30
2024-05-09T09:30:36.146Z,14.30
2024-05-09T09:33:23.754Z,14.40
2024-05-09T09:36:11.582Z,14.50
2024-05-09T09:39:02.110Z,14.70
2024-05-09T09:41:50.947Z,14.60
2024-05-09T09:44:42.262Z,14.70
2024-05-09T09:47:35.168Z,14.60
2024-05-09T09:50:27.887Z,14.60
2024-05-09T09:53:20.431Z,14.70
2024-05-09T09:56:07.970Z,14.90
2024-05-09T09:58:55.440Z,15.00
2024-05-09T10:01:44.721Z,15.10
2024-05-09T10:04:31.493Z,15.30
2024-05-09T10:07:21.512Z,15.40
2024-05-09T10:10:10.979Z,15.50
2024-05-09T10:13:05.954Z,15.70
2024-05-09T10:15:53.174Z,15.70
2024-05-09T10:18:41.066Z,15.80
2024-05-09T10:21:27.318Z,15.90
2024-05-09T10:24:18.948Z,16.00
2024-05-09T10:27:07.521Z,16.10
2024-05-09T10:29:56.148Z,16.30
2024-05-09T10:32:41.971Z,16.30
2024-05-09T10:35:32.720Z,16.50
2024-05-09T10:38:18.569Z,16.50
2024-05-09T10:41:05.669Z,16.50
2024-05-09T10:43:52.323Z,16.50
2024-05-09T10:46:38.013Z,16.60
2024-05-09T10:49:24.092Z,16.70
2024-05-09T10:52:09.461Z,16.80
2024-05-09T10:54:57.181Z,17.00
2024-05-09T10:57:44.895Z,16.80
2024-05-09T11:00:36.901Z,16.90
2024-05-09T11:03:26.394Z,17.00
2024-05-09T11:06:15.333Z,17.20
2024-05-09T11:09:01.039Z,17.30
2024-05-09T11:11:47.621Z,17.30
2024-05-09T11:14:35.301Z,17.50
2024-05-09T11:17:20.978Z,17.40
2024-05-09T11:20:13.709Z,17.60
2024-05-09T11:23:08.416Z,17.80
2024-05-09T11:25:56.148Z,18.00
2024-05-09T11:28:45.964Z,18.10
2024-05-09T11:31:31.923Z,18.20
2024-05-09T11:34:18.115Z,18.10
2024-05-09T11:37:04.350Z,18.20
2024-05-09T11:39:53.904Z,18.30
2024-05-09T11:42:41.581Z,18.40
2024-05-09T11:45:27.710Z,18.50
2024-05-09T11:48:13.498Z,18.50
2024-05-09T11:50:58.972Z,18.50
2024-05-09T11:53:44.811Z,18.60
2024-05-09T11:56:30.711Z,18.60
2024-05-09T11:59:19.156Z,18.60
2024-05-09T12:02:05.085Z,18.70
2024-05-09T12:04:50.823Z,18.80
2024-05-09T12:07:36.326Z,18.90
2024-05-09T12:10:31.806Z,18.80
2024-05-09T12:13:19.773Z,19.00
2024-05-09T12:16:06.615Z,19.10
2024-05-09T12:18:57.036Z,19.30
2024-05-09T12:21:42.887Z,20.00
2024-05-09T12:24:30.589Z,20.90
2024-05-09T12:27:16.041Z,21.50
2024-05-09T12:30:01.769Z,22.80
2024-05-09T12:32:48.863Z,28.30
2024-05-09T12:35:34.916Z,33.20
2024-05-09T12:38:20.414Z,36.40
2024-05-09T12:41:06.059Z,37.60
2024-05-09T12:43:51.671Z,37.30
2024-05-09T12:46:37.386Z,40.80
2024-05-09T12:49:24.546Z,41.10
2024-05-09T12:52:10.647Z,43.60
2024-05-09T12:54:56.207Z,45.10
2024-05-09T12:57:44.196Z,46.10
2024-05-09T13:00:33.741Z,46.80
2024-05-09T13:03:20.361Z,49.90
2024-05-09T13:06:06.294Z,48.70
2024-05-09T13:08:51.884Z,46.40
2024-05-09T13:11:37.652Z,47.40
2024-05-09T13:14:23.773Z,48.20
2024-05-09T13:17:09.486Z,50.60
2024-05-09T13:19:55.302Z,52.50
2024-05-09T13:22:42.483Z,51.80
2024-05-09T13:25:30.572Z,53.70
2024-05-09T13:28:16.494Z,54.30
2024-05-09T13:31:02.618Z,54.10
2024-05-09T13:33:48.274Z,53.00
2024-05-09T13:36:34.612Z,52.70
2024-05-09T13:39:20.317Z,54.30
2024-05-09T13:42:12.792Z,55.50
2024-05-09T13:44:59.228Z,54.80
2024-05-09T13:47:45.248Z,51.60
2024-05-09T13:50:35.121Z,53.30
2024-05-09T13:53:22.139Z,54.20
2024-05-09T13:56:08.780Z,53.80
2024-05-09T13:58:54.973Z,54.20
2024-05-09T14:01:40.705Z,54.20
2024-05-09T14:04:26.633Z,53.80
2024-05-09T14:07:14.743Z,53.20
2024-05-09T14:10:00.842Z,52.00
2024-05-09T14:12:46.821Z,49.20
2024-05-09T14:15:32.413Z,50.10
2024-05-09T14:18:18.326Z,49.60
2024-05-09T14:21:04.320Z,51.20
2024-05-09T14:23:50.007Z,51.00
2024-05-09T14:26:35.613Z,51.20
2024-05-09T14:29:21.114Z,47.80
2024-05-09T14:32:07.586Z,42.40
2024-05-09T14:34:54.454Z,37.70
2024-05-09T14:37:40.594Z,35.40
2024-05-09T14:40:36.944Z,34.00
2024-05-09T14:43:27.501Z,32.40
2024-05-09T14:46:13.841Z,30.30
2024-05-09T14:49:00.616Z,30.40
2024-05-09T14:51:48.774Z,28.90
2024-05-09T14:54:34.505Z,26.80
2024-05-09T14:57:20.394Z,27.80
2024-05-09T15:00:09.043Z,26.30
2024-05-09T15:03:00.569Z,24.30
2024-05-09T15:05:47.857Z,24.20
2024-05-09T15:08:35.684Z,26.30
2024-05-09T15:11:21.743Z,26.10
2024-05-09T15:14:09.838Z,26.20
2024-05-09T15:16:55.534Z,28.30
2024-05-09T15:19:44.431Z,28.30
2024-05-09T15:22:30.772Z,27.10
2024-05-09T15:25:17.067Z,25.70
2024-05-09T15:28:02.950Z,25.00
2024-05-09T15:30:48.646Z,24.60
2024-05-09T15:33:34.729Z,24.40
2024-05-09T15:36:20.915Z,24.10
2024-05-09T15:39:06.529Z,23.80
2024-05-09T15:41:56.583Z,23.50
2024-05-09T15:44:45.113Z,22.80
2024-05-09T15:47:34.027Z,23.40
2024-05-09T15:50:28.326Z,23.90
2024-05-09T15:53:21.481Z,24.00
2024-05-09T15:56:10.366Z,23.70
2024-05-09T15:58:56.568Z,23.50
2024-05-09T16:01:42.463Z,23.20
2024-05-09T16:04:28.364Z,22.30
2024-05-09T16:07:14.465Z,22.10
2024-05-09T16:10:00.584Z,22.30
2024-05-09T16:12:46.894Z,22.20
2024-05-09T16:15:37.567Z,22.40
2024-05-09T16:18:23.740Z,23.30
2024-05-09T16:21:11.604Z,23.90
2024-05-09T16:23:59.854Z,23.70
2024-05-09T16:26:45.708Z,23.20
2024-05-09T16:29:31.503Z,23.30
2024-05-09T16:32:19.453Z,22.60
2024-05-09T16:35:06.029Z,22.20
2024-05-09T16:37:54.107Z,21.80
2024-05-09T16:40:41.318Z,21.40
2024-05-09T16:43:27.878Z,21.50
2024-05-09T16:46:15.517Z,21.30
2024-05-09T16:49:02.165Z,21.20
2024-05-09T16:51:47.842Z,20.90
2024-05-09T16:54:33.404Z,20.60
2024-05-09T16:57:19.195Z,20.70
2024-05-09T17:00:11.759Z,20.40
2024-05-09T17:03:05.713Z,20.20
2024-05-09T17:05:51.532Z,20.00
2024-05-09T17:08:37.926Z,20.00
2024-05-09T17:11:26.369Z,19.90
2024-05-09T17:14:14.231Z,19.70
2024-05-09T17:17:00.137Z,19.60
2024-05-09T17:19:48.720Z,19.50
2024-05-09T17:22:35.311Z,19.50
2024-05-09T17:25:21.075Z,19.30
2024-05-09T17:28:10.048Z,19.30
2024-05-09T17:30:58.079Z,19.20
2024-05-09T17:33:47.355Z,19.10
2024-05-09T17:36:33.080Z,19.00
2024-05-09T17:39:18.523Z,18.90
2024-05-09T17:42:07.028Z,18.80
2024-05-09T17:44:52.776Z,18.80
2024-05-09T17:47:38.778Z,18.70
2024-05-09T17:50:34.732Z,18.70
2024-05-09T17:53:24.766Z,18.60
2024-05-09T17:56:10.784Z,18.50
2024-05-09T17:58:56.519Z,18.40
2024-05-09T18:01:44.692Z,18.40
2024-05-09T18:04:33.808Z,18.20
2024-05-09T18:07:19.673Z,18.20
2024-05-09T18:10:10.155Z,18.10
2024-05-09T18:13:01.516Z,18.00
2024-05-09T18:15:47.812Z,17.90
2024-05-09T18:18:33.632Z,17.80
2024-05-09T18:21:19.266Z,17.70
2024-05-09T18:24:07.506Z,17.60
2024-05-09T18:26:56.188Z,17.50
2024-05-09T18:29:42.056Z,17.50
2024-05-09T18:32:27.740Z,17.40
2024-05-09T18:35:13.446Z,17.30
2024-05-09T18:37:59.246Z,17.20
2024-05-09T18:40:48.149Z,17.00
2024-05-09T18:43:38.560Z,17.00
2024-05-09T18:46:30.354Z,17.00
2024-05-09T18:49:16.342Z,16.90
2024-05-09T18:52:05.961Z,16.80
2024-05-09T18:54:52.178Z,16.60
2024-05-09T18:57:38.054Z,16.50
2024-05-09T19:00:33.627Z,16.50
2024-05-09T19:03:23.102Z,16.40
2024-05-09T19:06:09.134Z,16.40
2024-05-09T19:08:54.921Z,16.40
2024-05-09T19:11:43.258Z,16.30
2024-05-09T19:14:29.174Z,16.20
2024-05-09T19:17:15.145Z,16.20
2024-05-09T19:20:01.214Z,16.10
2024-05-09T19:22:49.280Z,16.00
2024-05-09T19:25:39.002Z,16.00
2024-05-09T19:28:24.873Z,16.00
2024-05-09T19:31:10.905Z,15.90
2024-05-09T19:33:56.900Z,16.00
2024-05-09T19:36:42.666Z,16.00
2024-05-09T19:39:31.183Z,15.90
2024-05-09T19:42:16.753Z,15.90
2024-05-09T19:45:02.556Z,15.90
2024-05-09T19:47:48.366Z,15.70
2024-05-09T19:50:41.910Z,15.80
2024-05-09T19:53:29.713Z,15.90
2024-05-09T19:56:15.750Z,15.80
2024-05-09T19:59:01.566Z,15.70
2024-05-09T20:01:48.284Z,15.70
2024-05-09T20:04:34.612Z,15.70
2024-05-09T20:07:22.539Z,15.70
2024-05-09T20:10:16.461Z,15.70
2024-05-09T20:13:08.266Z,15.50
2024-05-09T20:16:01.285Z,15.40
2024-05-09T20:18:50.152Z,15.30
2024-05-09T20:21:44.218Z,15.20
2024-05-09T20:24:29.733Z,15.20
2024-05-09T20:27:15.350Z,15.00
2024-05-09T20:30:03.963Z,15.00
2024-05-09T20:32:54.245Z,14.90
2024-05-09T20:35:40.387Z,14.80
2024-05-09T20:38:26.498Z,14.80
2024-05-09T20:41:12.796Z,14.70
2024-05-09T20:44:01.668Z,14.60
2024-05-09T20:46:47.928Z,14.60
2024-05-09T20:49:35.756Z,14.60
2024-05-09T20:52:21.320Z,14.40
2024-05-09T20:55:06.905Z,14.40
2024-05-09T20:57:52.695Z,14.30
2024-05-09T21:00:42.087Z,14.20
2024-05-09T21:03:33.496Z,14.10
2024-05-09T21:06:19.483Z,14.00
2024-05-09T21:09:04.864Z,14.00
2024-05-09T21:11:50.704Z,14.00
2024-05-09T21:14:36.913Z,13.80
2024-05-09T21:17:22.517Z,13.80
2024-05-09T21:20:16.887Z,13.60
2024-05-09T21:23:05.781Z,13.60
2024-05-09T21:25:51.422Z,13.50
2024-05-09T21:28:37.053Z,13.40
2024-05-09T21:31:22.862Z,13.30
2024-05-09T21:34:08.512Z,13.30
2024-05-09T21:36:56.266Z,13.30
2024-05-09T21:39:42.861Z,13.40
2024-05-09T21:42:28.520Z,13.50
2024-05-09T21:45:14.081Z,13.50
2024-05-09T21:48:02.948Z,13.50
2024-05-09T21:50:48.742Z,13.50
2024-05-09T21:53:35.838Z,13.40
2024-05-09T21:56:22.539Z,13.30
2024-05-09T21:59:08.022Z,13.20
2024-05-09T22:01:53.636Z,13.20
2024-05-09T22:04:39.281Z,13.10
2024-05-09T22:07:25.059Z,13.10
2024-05-09T22:10:20.035Z,13.00
2024-05-09T22:13:11.959Z,12.90
2024-05-09T22:15:57.891Z,12.80
2024-05-09T22:18:43.574Z,12.80
2024-05-09T22:21:29.521Z,12.70
2024-05-09T22:24:17.675Z,12.70
2024-05-09T22:27:06.207Z,12.60
2024-05-09T22:29:52.215Z,12.60
2024-05-09T22:32:38.919Z,12.60
2024-05-09T22:35:24.832Z,12.50
2024-05-09T22:38:10.856Z,12.50
2024-05-09T22:40:56.486Z,12.50
2024-05-09T22:43:42.150Z,12.60
2024-05-09T22:46:28.090Z,12.60
2024-05-09T22:49:13.983Z,12.70
2024-05-09T22:51:59.470Z,12.70
2024-05-09T22:54:45.339Z,12.80
2024-05-09T22:57:31.168Z,12.70
2024-05-09T23:00:21.652Z,12.70
2024-05-09T23:03:11.736Z,12.70
2024-05-09T23:05:57.365Z,12.60
2024-05-09T23:08:45.231Z,12.60
2024-05-09T23:11:31.205Z,12.70
2024-05-09T23:14:16.712Z,12.60
2024-05-09T23:17:02.410Z,12.50
2024-05-09T23:19:47.835Z,12.50
2024-05-09T23:22:33.455Z,12.40
2024-05-09T23:25:19.148Z,12.40
2024-05-09T23:28:05.101Z,12.40
2024-05-09T23:30:50.831Z,12.30
2024-05-09T23:33:36.401Z,12.30
2024-05-09T23:36:21.910Z,12.30
2024-05-09T23:39:09.797Z,12.30
2024-05-09T23:41:55.521Z,12.30
2024-05-09T23:44:41.248Z,12.30
2024-05-09T23:47:26.746Z,12.20
2024-05-09T23:50:16.988Z,12.30
2024-05-09T23:53:10.257Z,12.30
2024-05-09T23:55:56.502Z,12.30
2024-05-09T23:58:42.129Z,12.30
